sensor_id;sensor_type;location;lat;lon;timestamp;temperature;humidity
296;DHT22;132;48.770;9.200;2022-11-12T00:00:29;7.20;1.00
296;DHT22;132;48.770;9.200;2022-11-12T00:03:34;6.90;1.00
296;DHT22;132;48.770;9.200;2022-11-12T00:06:39;6.80;1.00
296;DHT22;132;48.770;9.200;2022-11-12T00:09:44;8.70;1.00
296;DHT22;132;48.770;9.200;2022-11-12T00:12:50;6.90;1.00
296;DHT22;132;48.770;9.200;2022-11-12T00:15:55;6.80;1.00
296;DHT22;132;48.770;9.200;2022-11-12T00:19:00;6.70;1.00
296;DHT22;132;48.770;9.200;2022-11-12T00:22:06;8.30;1.00
296;DHT22;132;48.770;9.200;2022-11-12T00:25:11;6.50;1.00
296;DHT22;132;48.770;9.200;2022-11-12T00:28:16;7.60;1.00
296;DHT22;132;48.770;9.200;2022-11-12T00:31:22;6.50;1.00
296;DHT22;132;48.770;9.200;2022-11-12T00:34:27;6.50;1.00
296;DHT22;132;48.770;9.200;2022-11-12T00:37:32;6.40;1.00
296;DHT22;132;48.770;9.200;2022-11-12T00:40:37;6.50;1.00
296;DHT22;132;48.770;9.200;2022-11-12T00:43:42;6.50;1.00
296;DHT22;132;48.770;9.200;2022-11-12T00:46:48;6.40;1.00
296;DHT22;132;48.770;9.200;2022-11-12T00:49:53;6.40;1.00
296;DHT22;132;48.770;9.200;2022-11-12T00:52:58;7.50;1.00
296;DHT22;132;48.770;9.200;2022-11-12T00:56:04;6.40;1.00
296;DHT22;132;48.770;9.200;2022-11-12T00:59:10;6.40;1.00
296;DHT22;132;48.770;9.200;2022-11-12T01:02:16;6.40;1.00
296;DHT22;132;48.770;9.200;2022-11-12T01:05:21;6.40;1.00
296;DHT22;132;48.770;9.200;2022-11-12T01:08:28;7.20;1.00
296;DHT22;132;48.770;9.200;2022-11-12T01:11:34;6.40;1.00
296;DHT22;132;48.770;9.200;2022-11-12T01:14:39;6.40;1.00
296;DHT22;132;48.770;9.200;2022-11-12T01:17:45;6.40;1.00
296;DHT22;132;48.770;9.200;2022-11-12T01:20:50;6.10;1.00
296;DHT22;132;48.770;9.200;2022-11-12T01:23:56;6.40;1.00
296;DHT22;132;48.770;9.200;2022-11-12T01:27:02;6.30;1.00
296;DHT22;132;48.770;9.200;2022-11-12T01:30:07;6.30;1.00
296;DHT22;132;48.770;9.200;2022-11-12T01:33:12;6.30;1.00
296;DHT22;132;48.770;9.200;2022-11-12T01:36:18;6.30;1.00
296;DHT22;132;48.770;9.200;2022-11-12T01:39:23;6.20;1.00
296;DHT22;132;48.770;9.200;2022-11-12T01:42:30;6.20;1.00
296;DHT22;132;48.770;9.200;2022-11-12T01:45:41;8.00;1.00
296;DHT22;132;48.770;9.200;2022-11-12T01:48:52;6.60;1.00
296;DHT22;132;48.770;9.200;2022-11-12T01:55:19;6.20;1.00
296;DHT22;132;48.770;9.200;2022-11-12T01:58:29;7.70;1.00
296;DHT22;132;48.770;9.200;2022-11-12T02:01:35;6.30;1.00
296;DHT22;132;48.770;9.200;2022-11-12T02:04:41;6.10;1.00
296;DHT22;132;48.770;9.200;2022-11-12T02:07:47;6.10;1.00
296;DHT22;132;48.770;9.200;2022-11-12T02:10:53;6.00;1.00
296;DHT22;132;48.770;9.200;2022-11-12T02:13:59;6.30;1.00
296;DHT22;132;48.770;9.200;2022-11-12T02:17:07;6.00;1.00
296;DHT22;132;48.770;9.200;2022-11-12T02:20:13;6.00;1.00
296;DHT22;132;48.770;9.200;2022-11-12T02:23:18;6.00;1.00
296;DHT22;132;48.770;9.200;2022-11-12T02:29:06;6.00;1.00
296;DHT22;132;48.770;9.200;2022-11-12T02:32:12;5.30;1.00
296;DHT22;132;48.770;9.200;2022-11-12T02:35:18;5.90;1.00
296;DHT22;132;48.770;9.200;2022-11-12T02:38:23;5.80;1.00
296;DHT22;132;48.770;9.200;2022-11-12T02:41:28;5.80;1.00
296;DHT22;132;48.770;9.200;2022-11-12T02:44:33;5.80;1.00
296;DHT22;132;48.770;9.200;2022-11-12T02:47:38;5.80;1.00
296;DHT22;132;48.770;9.200;2022-11-12T02:50:43;5.80;1.00
296;DHT22;132;48.770;9.200;2022-11-12T02:53:48;5.80;1.00
296;DHT22;132;48.770;9.200;2022-11-12T02:56:54;6.10;1.00
296;DHT22;132;48.770;9.200;2022-11-12T02:59:59;7.10;1.00
296;DHT22;132;48.770;9.200;2022-11-12T03:03:04;5.70;1.00
296;DHT22;132;48.770;9.200;2022-11-12T03:06:10;5.70;1.00
296;DHT22;132;48.770;9.200;2022-11-12T03:09:15;5.80;1.00
296;DHT22;132;48.770;9.200;2022-11-12T03:12:20;5.80;1.00
296;DHT22;132;48.770;9.200;2022-11-12T03:15:27;5.80;1.00
296;DHT22;132;48.770;9.200;2022-11-12T03:18:33;5.80;1.00
296;DHT22;132;48.770;9.200;2022-11-12T03:21:39;5.80;1.00
296;DHT22;132;48.770;9.200;2022-11-12T03:24:43;5.80;1.00
296;DHT22;132;48.770;9.200;2022-11-12T03:27:55;5.70;1.00
296;DHT22;132;48.770;9.200;2022-11-12T03:31:01;5.80;1.00
296;DHT22;132;48.770;9.200;2022-11-12T03:34:06;5.80;1.00
296;DHT22;132;48.770;9.200;2022-11-12T03:37:11;5.80;1.00
296;DHT22;132;48.770;9.200;2022-11-12T03:40:17;5.80;1.00
296;DHT22;132;48.770;9.200;2022-11-12T03:43:22;5.70;1.00
296;DHT22;132;48.770;9.200;2022-11-12T03:46:27;5.70;1.00
296;DHT22;132;48.770;9.200;2022-11-12T03:49:32;6.30;1.00
296;DHT22;132;48.770;9.200;2022-11-12T03:52:38;6.10;1.00
296;DHT22;132;48.770;9.200;2022-11-12T03:55:43;5.70;1.00
296;DHT22;132;48.770;9.200;2022-11-12T03:58:49;5.60;1.00
296;DHT22;132;48.770;9.200;2022-11-12T04:01:54;5.60;1.00
296;DHT22;132;48.770;9.200;2022-11-12T04:05:00;5.50;1.00
296;DHT22;132;48.770;9.200;2022-11-12T04:08:24;5.50;1.00
296;DHT22;132;48.770;9.200;2022-11-12T04:11:41;6.10;1.00
296;DHT22;132;48.770;9.200;2022-11-12T04:14:47;5.50;1.00
296;DHT22;132;48.770;9.200;2022-11-12T04:17:52;5.40;1.00
296;DHT22;132;48.770;9.200;2022-11-12T04:21:16;5.80;1.00
296;DHT22;132;48.770;9.200;2022-11-12T04:24:41;5.60;1.00
296;DHT22;132;48.770;9.200;2022-11-12T04:28:05;5.60;1.00
296;DHT22;132;48.770;9.200;2022-11-12T04:31:10;5.70;1.00
296;DHT22;132;48.770;9.200;2022-11-12T04:34:14;5.60;1.00
296;DHT22;132;48.770;9.200;2022-11-12T04:37:36;5.60;1.00
296;DHT22;132;48.770;9.200;2022-11-12T04:40:50;5.60;1.00
296;DHT22;132;48.770;9.200;2022-11-12T04:44:14;5.70;1.00
296;DHT22;132;48.770;9.200;2022-11-12T04:47:40;5.60;1.00
296;DHT22;132;48.770;9.200;2022-11-12T04:51:02;5.60;1.00
296;DHT22;132;48.770;9.200;2022-11-12T04:54:28;5.60;1.00
296;DHT22;132;48.770;9.200;2022-11-12T04:57:34;5.60;1.00
296;DHT22;132;48.770;9.200;2022-11-12T05:00:39;5.60;1.00
296;DHT22;132;48.770;9.200;2022-11-12T05:06:41;5.70;1.00
296;DHT22;132;48.770;9.200;2022-11-12T05:09:55;5.20;1.00
296;DHT22;132;48.770;9.200;2022-11-12T05:13:00;5.60;1.00
296;DHT22;132;48.770;9.200;2022-11-12T05:16:05;5.60;1.00
296;DHT22;132;48.770;9.200;2022-11-12T05:19:11;5.60;1.00
296;DHT22;132;48.770;9.200;2022-11-12T05:22:16;5.90;1.00
296;DHT22;132;48.770;9.200;2022-11-12T05:25:21;5.50;1.00
296;DHT22;132;48.770;9.200;2022-11-12T05:28:26;5.50;1.00
296;DHT22;132;48.770;9.200;2022-11-12T05:31:31;5.50;1.00
296;DHT22;132;48.770;9.200;2022-11-12T05:34:36;5.50;1.00
296;DHT22;132;48.770;9.200;2022-11-12T05:37:42;5.50;1.00
296;DHT22;132;48.770;9.200;2022-11-12T05:40:48;5.30;1.00
296;DHT22;132;48.770;9.200;2022-11-12T05:50:11;5.30;1.00
296;DHT22;132;48.770;9.200;2022-11-12T05:56:12;5.20;1.00
296;DHT22;132;48.770;9.200;2022-11-12T06:02:14;5.10;1.00
296;DHT22;132;48.770;9.200;2022-11-12T06:05:19;7.40;1.00
296;DHT22;132;48.770;9.200;2022-11-12T06:23:15;4.90;1.00
296;DHT22;132;48.770;9.200;2022-11-12T06:32:39;4.70;1.00
296;DHT22;132;48.770;9.200;2022-11-12T06:54:01;4.90;1.00
296;DHT22;132;48.770;9.200;2022-11-12T07:17:38;5.20;1.00
296;DHT22;132;48.770;9.200;2022-11-12T07:20:43;7.60;1.00
296;DHT22;132;48.770;9.200;2022-11-12T07:23:49;5.00;1.00
296;DHT22;132;48.770;9.200;2022-11-12T07:26:54;5.40;1.00
296;DHT22;132;48.770;9.200;2022-11-12T07:29:59;5.40;1.00
296;DHT22;132;48.770;9.200;2022-11-12T07:33:04;5.60;1.00
296;DHT22;132;48.770;9.200;2022-11-12T07:36:16;5.60;1.00
296;DHT22;132;48.770;9.200;2022-11-12T07:39:21;7.70;1.00
296;DHT22;132;48.770;9.200;2022-11-12T07:42:26;7.60;1.00
296;DHT22;132;48.770;9.200;2022-11-12T07:45:33;5.90;1.00
296;DHT22;132;48.770;9.200;2022-11-12T07:48:39;6.10;1.00
296;DHT22;132;48.770;9.200;2022-11-12T07:51:44;5.90;1.00
296;DHT22;132;48.770;9.200;2022-11-12T07:54:49;5.90;1.00
296;DHT22;132;48.770;9.200;2022-11-12T07:57:58;5.90;1.00
296;DHT22;132;48.770;9.200;2022-11-12T08:04:12;5.80;1.00
296;DHT22;132;48.770;9.200;2022-11-12T08:07:17;6.00;1.00
296;DHT22;132;48.770;9.200;2022-11-12T08:10:22;5.80;1.00
296;DHT22;132;48.770;9.200;2022-11-12T08:13:28;5.80;1.00
296;DHT22;132;48.770;9.200;2022-11-12T08:19:29;6.00;1.00
296;DHT22;132;48.770;9.200;2022-11-12T08:22:34;5.80;1.00
296;DHT22;132;48.770;9.200;2022-11-12T08:25:39;6.00;1.00
296;DHT22;132;48.770;9.200;2022-11-12T08:28:45;6.00;1.00
296;DHT22;132;48.770;9.200;2022-11-12T08:31:50;7.60;1.00
296;DHT22;132;48.770;9.200;2022-11-12T08:34:56;6.40;1.00
296;DHT22;132;48.770;9.200;2022-11-12T08:38:03;6.40;1.00
296;DHT22;132;48.770;9.200;2022-11-12T08:41:11;6.30;1.00
296;DHT22;132;48.770;9.200;2022-11-12T08:44:16;9.00;1.00
296;DHT22;132;48.770;9.200;2022-11-12T08:47:22;6.40;1.00
296;DHT22;132;48.770;9.200;2022-11-12T08:50:27;6.60;1.00
296;DHT22;132;48.770;9.200;2022-11-12T08:53:33;7.00;1.00
296;DHT22;132;48.770;9.200;2022-11-12T08:56:38;7.20;1.00
296;DHT22;132;48.770;9.200;2022-11-12T08:59:43;9.30;1.00
296;DHT22;132;48.770;9.200;2022-11-12T09:02:49;8.20;1.00
296;DHT22;132;48.770;9.200;2022-11-12T09:05:54;7.90;1.00
296;DHT22;132;48.770;9.200;2022-11-12T09:09:00;7.70;1.00
296;DHT22;132;48.770;9.200;2022-11-12T09:12:05;7.90;1.00
296;DHT22;132;48.770;9.200;2022-11-12T09:15:10;8.00;1.00
296;DHT22;132;48.770;9.200;2022-11-12T09:18:17;8.90;1.00
296;DHT22;132;48.770;9.200;2022-11-12T09:21:22;9.50;1.00
296;DHT22;132;48.770;9.200;2022-11-12T09:24:28;9.60;1.00
296;DHT22;132;48.770;9.200;2022-11-12T09:27:33;8.60;1.00
296;DHT22;132;48.770;9.200;2022-11-12T09:30:45;9.60;1.00
296;DHT22;132;48.770;9.200;2022-11-12T09:33:51;8.20;1.00
296;DHT22;132;48.770;9.200;2022-11-12T09:36:56;8.20;1.00
296;DHT22;132;48.770;9.200;2022-11-12T09:40:01;8.90;1.00
296;DHT22;132;48.770;9.200;2022-11-12T09:46:49;8.40;1.00
296;DHT22;132;48.770;9.200;2022-11-12T09:50:31;8.50;1.00
296;DHT22;132;48.770;9.200;2022-11-12T09:53:45;8.60;1.00
296;DHT22;132;48.770;9.200;2022-11-12T09:56:58;8.70;1.00
296;DHT22;132;48.770;9.200;2022-11-12T10:00:33;9.80;1.00
296;DHT22;132;48.770;9.200;2022-11-12T10:03:46;9.10;1.00
296;DHT22;132;48.770;9.200;2022-11-12T10:06:58;8.90;1.00
296;DHT22;132;48.770;9.200;2022-11-12T10:17:05;9.20;1.00
296;DHT22;132;48.770;9.200;2022-11-12T10:20:29;9.30;1.00
296;DHT22;132;48.770;9.200;2022-11-12T10:23:40;9.40;1.00
296;DHT22;132;48.770;9.200;2022-11-12T10:26:47;9.50;1.00
296;DHT22;132;48.770;9.200;2022-11-12T10:30:03;10.70;1.00
296;DHT22;132;48.770;9.200;2022-11-12T10:33:13;9.70;1.00
296;DHT22;132;48.770;9.200;2022-11-12T10:36:37;9.80;1.00
296;DHT22;132;48.770;9.200;2022-11-12T10:39:45;9.80;1.00
296;DHT22;132;48.770;9.200;2022-11-12T10:43:05;9.90;1.00
296;DHT22;132;48.770;9.200;2022-11-12T10:46:26;9.90;1.00
296;DHT22;132;48.770;9.200;2022-11-12T10:49:32;9.90;1.00
296;DHT22;132;48.770;9.200;2022-11-12T10:52:37;10.90;1.00
296;DHT22;132;48.770;9.200;2022-11-12T10:55:57;10.90;1.00
296;DHT22;132;48.770;9.200;2022-11-12T10:59:21;9.90;1.00
296;DHT22;132;48.770;9.200;2022-11-12T11:02:27;10.00;1.00
296;DHT22;132;48.770;9.200;2022-11-12T11:05:34;10.10;1.00
296;DHT22;132;48.770;9.200;2022-11-12T11:08:51;10.10;1.00
296;DHT22;132;48.770;9.200;2022-11-12T11:11:57;10.10;1.00
296;DHT22;132;48.770;9.200;2022-11-12T11:18:19;10.30;1.00
296;DHT22;132;48.770;9.200;2022-11-12T11:25:23;10.40;1.00
296;DHT22;132;48.770;9.200;2022-11-12T11:28:55;10.40;1.00
296;DHT22;132;48.770;9.200;2022-11-12T11:36:20;10.40;1.00
296;DHT22;132;48.770;9.200;2022-11-12T11:39:42;10.40;1.00
296;DHT22;132;48.770;9.200;2022-11-12T11:50:31;10.60;1.00
296;DHT22;132;48.770;9.200;2022-11-12T11:53:26;10.60;1.00
296;DHT22;132;48.770;9.200;2022-11-12T11:56:40;10.60;1.00
296;DHT22;132;48.770;9.200;2022-11-12T12:03:23;10.70;1.00
296;DHT22;132;48.770;9.200;2022-11-12T12:06:36;10.80;1.00
296;DHT22;132;48.770;9.200;2022-11-12T12:09:50;10.80;1.00
296;DHT22;132;48.770;9.200;2022-11-12T12:23:12;11.10;1.00
296;DHT22;132;48.770;9.200;2022-11-12T12:29:37;11.40;1.00
296;DHT22;132;48.770;9.200;2022-11-12T12:36:07;11.60;1.00
296;DHT22;132;48.770;9.200;2022-11-12T12:39:17;11.40;1.00
296;DHT22;132;48.770;9.200;2022-11-12T12:42:31;11.70;1.00
296;DHT22;132;48.770;9.200;2022-11-12T12:45:43;11.50;1.00
296;DHT22;132;48.770;9.200;2022-11-12T12:48:49;11.60;1.00
296;DHT22;132;48.770;9.200;2022-11-12T12:51:57;11.60;1.00
296;DHT22;132;48.770;9.200;2022-11-12T12:55:03;11.70;1.00
296;DHT22;132;48.770;9.200;2022-11-12T12:58:16;11.60;1.00
296;DHT22;132;48.770;9.200;2022-11-12T13:01:27;11.80;1.00
296;DHT22;132;48.770;9.200;2022-11-12T13:08:04;11.80;1.00
296;DHT22;132;48.770;9.200;2022-11-12T13:15:14;11.70;1.00
296;DHT22;132;48.770;9.200;2022-11-12T13:21:43;11.70;1.00
296;DHT22;132;48.770;9.200;2022-11-12T13:28:12;11.70;1.00
296;DHT22;132;48.770;9.200;2022-11-12T13:31:25;12.00;1.00
296;DHT22;132;48.770;9.200;2022-11-12T13:34:32;11.90;1.00
296;DHT22;132;48.770;9.200;2022-11-12T13:41:17;11.70;1.00
296;DHT22;132;48.770;9.200;2022-11-12T13:44:44;11.80;1.00
296;DHT22;132;48.770;9.200;2022-11-12T13:47:51;11.80;1.00
296;DHT22;132;48.770;9.200;2022-11-12T13:51:00;11.80;1.00
296;DHT22;132;48.770;9.200;2022-11-12T13:54:30;11.90;1.00
296;DHT22;132;48.770;9.200;2022-11-12T13:57:35;11.90;1.00
296;DHT22;132;48.770;9.200;2022-11-12T14:00:50;11.90;1.00
296;DHT22;132;48.770;9.200;2022-11-12T14:03:56;11.80;1.00
296;DHT22;132;48.770;9.200;2022-11-12T14:20:45;11.70;1.00
296;DHT22;132;48.770;9.200;2022-11-12T14:23:51;12.20;1.00
296;DHT22;132;48.770;9.200;2022-11-12T14:26:56;11.70;1.00
296;DHT22;132;48.770;9.200;2022-11-12T14:33:20;11.60;1.00
296;DHT22;132;48.770;9.200;2022-11-12T14:36:25;11.60;1.00
296;DHT22;132;48.770;9.200;2022-11-12T14:39:31;11.60;1.00
296;DHT22;132;48.770;9.200;2022-11-12T14:42:36;11.60;1.00
296;DHT22;132;48.770;9.200;2022-11-12T14:45:51;11.60;1.00
296;DHT22;132;48.770;9.200;2022-11-12T14:49:01;11.40;1.00
296;DHT22;132;48.770;9.200;2022-11-12T14:52:26;11.40;1.00
296;DHT22;132;48.770;9.200;2022-11-12T14:55:35;11.30;1.00
296;DHT22;132;48.770;9.200;2022-11-12T14:58:40;11.30;1.00
296;DHT22;132;48.770;9.200;2022-11-12T15:02:13;11.20;1.00
296;DHT22;132;48.770;9.200;2022-11-12T15:05:20;11.10;1.00
296;DHT22;132;48.770;9.200;2022-11-12T15:08:37;11.00;1.00
296;DHT22;132;48.770;9.200;2022-11-12T15:11:46;11.00;1.00
296;DHT22;132;48.770;9.200;2022-11-12T15:14:53;11.00;1.00
296;DHT22;132;48.770;9.200;2022-11-12T15:18:18;10.70;1.00
296;DHT22;132;48.770;9.200;2022-11-12T15:21:26;10.60;1.00
296;DHT22;132;48.770;9.200;2022-11-12T15:24:35;10.50;1.00
296;DHT22;132;48.770;9.200;2022-11-12T15:27:42;10.40;1.00
296;DHT22;132;48.770;9.200;2022-11-12T15:31:20;10.30;1.00
296;DHT22;132;48.770;9.200;2022-11-12T15:34:28;10.10;1.00
296;DHT22;132;48.770;9.200;2022-11-12T15:37:40;10.30;1.00
296;DHT22;132;48.770;9.200;2022-11-12T15:40:52;10.20;1.00
296;DHT22;132;48.770;9.200;2022-11-12T15:43:58;9.90;1.00
296;DHT22;132;48.770;9.200;2022-11-12T15:47:04;9.90;1.00
296;DHT22;132;48.770;9.200;2022-11-12T15:50:17;10.20;1.00
296;DHT22;132;48.770;9.200;2022-11-12T15:53:22;9.60;1.00
296;DHT22;132;48.770;9.200;2022-11-12T15:56:28;10.80;1.00
296;DHT22;132;48.770;9.200;2022-11-12T15:59:34;9.50;1.00
296;DHT22;132;48.770;9.200;2022-11-12T16:02:39;9.40;1.00
296;DHT22;132;48.770;9.200;2022-11-12T16:05:45;9.40;1.00
296;DHT22;132;48.770;9.200;2022-11-12T16:08:50;9.30;1.00
296;DHT22;132;48.770;9.200;2022-11-12T16:11:55;9.30;1.00
296;DHT22;132;48.770;9.200;2022-11-12T16:15:04;9.20;1.00
296;DHT22;132;48.770;9.200;2022-11-12T16:18:10;9.10;1.00
296;DHT22;132;48.770;9.200;2022-11-12T16:21:15;9.10;1.00
296;DHT22;132;48.770;9.200;2022-11-12T16:24:21;9.00;1.00
296;DHT22;132;48.770;9.200;2022-11-12T16:27:26;9.00;1.00
296;DHT22;132;48.770;9.200;2022-11-12T16:30:32;9.10;1.00
296;DHT22;132;48.770;9.200;2022-11-12T16:33:37;9.10;1.00
296;DHT22;132;48.770;9.200;2022-11-12T16:36:42;8.80;1.00
296;DHT22;132;48.770;9.200;2022-11-12T16:39:48;8.80;1.00
296;DHT22;132;48.770;9.200;2022-11-12T16:42:54;8.70;1.00
296;DHT22;132;48.770;9.200;2022-11-12T16:45:59;8.60;1.00
296;DHT22;132;48.770;9.200;2022-11-12T16:49:06;8.60;1.00
296;DHT22;132;48.770;9.200;2022-11-12T16:52:14;8.60;1.00
296;DHT22;132;48.770;9.200;2022-11-12T16:55:20;9.30;1.00
296;DHT22;132;48.770;9.200;2022-11-12T16:58:25;8.50;1.00
296;DHT22;132;48.770;9.200;2022-11-12T17:01:31;8.70;1.00
296;DHT22;132;48.770;9.200;2022-11-12T17:04:36;8.40;1.00
296;DHT22;132;48.770;9.200;2022-11-12T17:07:42;8.40;1.00
296;DHT22;132;48.770;9.200;2022-11-12T17:10:47;8.40;1.00
296;DHT22;132;48.770;9.200;2022-11-12T17:13:53;8.20;1.00
296;DHT22;132;48.770;9.200;2022-11-12T17:16:58;8.20;1.00
296;DHT22;132;48.770;9.200;2022-11-12T17:20:03;8.20;1.00
296;DHT22;132;48.770;9.200;2022-11-12T17:23:09;8.20;1.00
296;DHT22;132;48.770;9.200;2022-11-12T17:26:17;8.20;1.00
296;DHT22;132;48.770;9.200;2022-11-12T17:29:22;8.10;1.00
296;DHT22;132;48.770;9.200;2022-11-12T17:32:28;8.10;1.00
296;DHT22;132;48.770;9.200;2022-11-12T17:35:33;8.10;1.00
296;DHT22;132;48.770;9.200;2022-11-12T17:38:39;8.50;1.00
296;DHT22;132;48.770;9.200;2022-11-12T17:41:44;9.00;1.00
296;DHT22;132;48.770;9.200;2022-11-12T17:44:49;8.00;1.00
296;DHT22;132;48.770;9.200;2022-11-12T17:47:55;7.90;1.00
296;DHT22;132;48.770;9.200;2022-11-12T17:51:18;9.10;1.00
296;DHT22;132;48.770;9.200;2022-11-12T17:54:24;7.80;1.00
296;DHT22;132;48.770;9.200;2022-11-12T17:57:29;9.30;1.00
296;DHT22;132;48.770;9.200;2022-11-12T18:00:36;9.00;1.00
296;DHT22;132;48.770;9.200;2022-11-12T18:03:44;7.80;1.00
296;DHT22;132;48.770;9.200;2022-11-12T18:06:49;7.30;1.00
296;DHT22;132;48.770;9.200;2022-11-12T18:09:55;9.70;1.00
296;DHT22;132;48.770;9.200;2022-11-12T18:13:25;7.70;1.00
296;DHT22;132;48.770;9.200;2022-11-12T18:16:31;7.90;1.00
296;DHT22;132;48.770;9.200;2022-11-12T18:19:37;7.50;1.00
296;DHT22;132;48.770;9.200;2022-11-12T18:22:43;7.60;1.00
296;DHT22;132;48.770;9.200;2022-11-12T18:25:48;7.60;1.00
296;DHT22;132;48.770;9.200;2022-11-12T18:28:57;8.90;1.00
296;DHT22;132;48.770;9.200;2022-11-12T18:32:03;7.50;1.00
296;DHT22;132;48.770;9.200;2022-11-12T18:35:08;7.40;1.00
296;DHT22;132;48.770;9.200;2022-11-12T18:38:14;7.40;1.00
296;DHT22;132;48.770;9.200;2022-11-12T18:41:22;8.50;1.00
296;DHT22;132;48.770;9.200;2022-11-12T18:44:29;7.10;1.00
296;DHT22;132;48.770;9.200;2022-11-12T18:47:34;7.10;1.00
296;DHT22;132;48.770;9.200;2022-11-12T18:50:39;7.30;1.00
296;DHT22;132;48.770;9.200;2022-11-12T18:53:45;7.30;1.00
296;DHT22;132;48.770;9.200;2022-11-12T18:56:51;9.10;1.00
296;DHT22;132;48.770;9.200;2022-11-12T18:59:56;7.30;1.00
296;DHT22;132;48.770;9.200;2022-11-12T19:03:02;7.70;1.00
296;DHT22;132;48.770;9.200;2022-11-12T19:06:32;7.20;1.00
296;DHT22;132;48.770;9.200;2022-11-12T19:09:38;7.20;1.00
296;DHT22;132;48.770;9.200;2022-11-12T19:12:43;7.60;1.00
296;DHT22;132;48.770;9.200;2022-11-12T19:15:49;8.90;1.00
296;DHT22;132;48.770;9.200;2022-11-12T19:19:19;7.90;1.00
296;DHT22;132;48.770;9.200;2022-11-12T19:22:25;7.30;1.00
296;DHT22;132;48.770;9.200;2022-11-12T19:25:33;8.30;1.00
296;DHT22;132;48.770;9.200;2022-11-12T19:28:39;8.30;1.00
296;DHT22;132;48.770;9.200;2022-11-12T19:32:10;7.40;1.00
296;DHT22;132;48.770;9.200;2022-11-12T19:35:16;7.30;1.00
296;DHT22;132;48.770;9.200;2022-11-12T19:38:22;8.00;1.00
296;DHT22;132;48.770;9.200;2022-11-12T19:41:28;8.00;1.00
296;DHT22;132;48.770;9.200;2022-11-12T19:44:34;7.20;1.00
296;DHT22;132;48.770;9.200;2022-11-12T19:47:43;7.20;1.00
296;DHT22;132;48.770;9.200;2022-11-12T19:50:53;7.20;1.00
296;DHT22;132;48.770;9.200;2022-11-12T19:54:06;7.40;1.00
296;DHT22;132;48.770;9.200;2022-11-12T19:57:14;7.10;1.00
296;DHT22;132;48.770;9.200;2022-11-12T20:00:39;7.00;1.00
296;DHT22;132;48.770;9.200;2022-11-12T20:03:45;7.00;1.00
296;DHT22;132;48.770;9.200;2022-11-12T20:06:51;8.90;1.00
296;DHT22;132;48.770;9.200;2022-11-12T20:09:56;7.20;1.00
296;DHT22;132;48.770;9.200;2022-11-12T20:13:02;8.70;1.00
296;DHT22;132;48.770;9.200;2022-11-12T20:16:16;6.80;1.00
296;DHT22;132;48.770;9.200;2022-11-12T20:19:22;8.60;1.00
296;DHT22;132;48.770;9.200;2022-11-12T20:22:29;6.80;1.00
296;DHT22;132;48.770;9.200;2022-11-12T20:26:13;6.80;1.00
296;DHT22;132;48.770;9.200;2022-11-12T20:29:44;6.70;1.00
296;DHT22;132;48.770;9.200;2022-11-12T20:33:15;6.70;1.00
296;DHT22;132;48.770;9.200;2022-11-12T20:40:24;6.60;1.00
296;DHT22;132;48.770;9.200;2022-11-12T20:43:37;7.80;1.00
296;DHT22;132;48.770;9.200;2022-11-12T21:53:27;6.10;1.00
296;DHT22;132;48.770;9.200;2022-11-12T22:07:47;6.10;1.00
296;DHT22;132;48.770;9.200;2022-11-12T22:17:18;5.90;1.00
296;DHT22;132;48.770;9.200;2022-11-12T22:29:29;5.80;1.00
296;DHT22;132;48.770;9.200;2022-11-12T22:32:36;5.80;1.00
296;DHT22;132;48.770;9.200;2022-11-12T22:46:15;5.70;1.00
296;DHT22;132;48.770;9.200;2022-11-12T22:50:23;5.80;1.00
296;DHT22;132;48.770;9.200;2022-11-12T22:53:33;5.40;1.00
296;DHT22;132;48.770;9.200;2022-11-12T23:09:46;5.50;1.00
296;DHT22;132;48.770;9.200;2022-11-12T23:30:15;5.40;1.00
296;DHT22;132;48.770;9.200;2022-11-12T23:33:21;5.00;1.00
